Time;durP1;ratioP1;P1;durP2;ratioP2;P2;SDS_P1;SDS_P2;PMS_P1;PMS_P2;Temp;Humidity;BMP_temperature;BMP_pressure;BME280_temperature;BME280_humidity;BME280_pressure;Samples;Min_cycle;Max_cycle;Signal;HPM_P1;HPM_P2
2024/01/29 00:01:17;;;;;;;3.83;1.70;;;;;;;10.51;47.30;100710.47;4954255;28;20055;-78
2024/01/29 00:03:45;;;;;;;2.45;1.67;;;;;;;10.50;47.15;100701.72;4954844;28;20050;-75
2024/01/29 00:06:11;;;;;;;5.43;2.60;;;;;;;10.48;46.57;100700.94;4971890;28;20055;-75
2024/01/29 00:08:38;;;;;;;5.00;1.75;;;;;;;10.49;47.06;100696.50;4954385;28;20051;-77
2024/01/29 00:11:05;;;;;;;4.07;2.08;;;;;;;10.47;47.33;100701.81;4953950;28;20058;-78
2024/01/29 00:13:32;;;;;;;3.25;1.90;;;;;;;10.46;47.25;100697.50;4971381;28;20061;-75
2024/01/29 00:15:59;;;;;;;2.63;1.90;;;;;;;10.45;47.58;100694.91;4954402;28;20089;-77
2024/01/29 00:18:26;;;;;;;4.38;2.00;;;;;;;10.40;47.28;100695.94;4954709;28;20047;-75
2024/01/29 00:20:53;;;;;;;3.20;1.90;;;;;;;10.37;46.75;100695.22;4971195;28;20058;-75
2024/01/29 00:23:19;;;;;;;4.57;2.10;;;;;;;10.36;47.28;100690.88;4954429;28;20058;-76
2024/01/29 00:25:46;;;;;;;5.50;2.42;;;;;;;10.35;47.40;100697.06;4971517;28;20046;-75
2024/01/29 00:28:13;;;;;;;5.05;2.30;;;;;;;10.33;46.75;100688.34;4954298;28;20524;-76
2024/01/29 00:30:39;;;;;;;2.38;1.50;;;;;;;10.32;46.70;100690.13;4953851;28;20483;-74
2024/01/29 00:33:06;;;;;;;2.92;2.05;;;;;;;10.33;47.24;100677.84;4971625;28;20047;-77
2024/01/29 00:35:32;;;;;;;3.45;1.98;;;;;;;10.31;47.23;100693.69;4971554;28;20086;-76
2024/01/29 00:37:59;;;;;;;3.92;2.00;;;;;;;10.29;47.59;100693.72;4971395;28;20051;-76
2024/01/29 00:40:26;;;;;;;4.57;2.13;;;;;;;10.26;47.37;100693.88;4971201;28;20098;-75
2024/01/29 00:42:52;;;;;;;5.00;2.38;;;;;;;10.26;47.41;100696.50;4971291;28;20058;-77
2024/01/29 00:45:20;;;;;;;4.70;2.03;;;;;;;10.24;47.54;100694.88;4971119;28;20058;-75
2024/01/29 00:47:47;;;;;;;4.93;2.13;;;;;;;10.22;47.52;100704.56;4971356;28;20090;-76
2024/01/29 00:50:13;;;;;;;3.85;1.83;;;;;;;10.19;47.18;100695.03;4971320;28;20188;-76
2024/01/29 00:52:40;;;;;;;5.25;1.90;;;;;;;10.19;47.50;100691.53;4971141;28;20051;-78
2024/01/29 00:55:06;;;;;;;3.58;1.95;;;;;;;10.15;45.94;100693.44;4953788;28;20481;-76
2024/01/29 00:57:33;;;;;;;2.90;1.70;;;;;;;10.17;47.09;100691.63;4971163;28;20051;-77
2024/01/29 01:00:00;;;;;;;4.38;1.92;;;;;;;10.17;47.46;100691.63;4971410;28;20051;-77
2024/01/29 01:02:26;;;;;;;3.80;2.13;;;;;;;10.15;47.44;100690.81;4971175;28;20051;-75
2024/01/29 01:04:53;;;;;;;2.80;1.90;;;;;;;10.15;47.85;100694.31;4971095;28;20051;-75
2024/01/29 01:09:55;;;;;;;2.95;1.67;;;;;;;10.15;47.50;100693.44;4970100;28;20134;-74
2024/01/29 01:12:22;;;;;;;4.15;2.00;;;;;;;10.14;47.72;100694.38;4971005;28;20488;-72
2024/01/29 01:14:49;;;;;;;2.50;1.70;;;;;;;10.12;47.75;100696.19;4975056;28;20495;-73
2024/01/29 01:17:15;;;;;;;2.63;1.92;;;;;;;10.12;48.03;100696.19;4975733;28;20051;-73
2024/01/29 01:19:42;;;;;;;3.60;1.92;;;;;;;10.08;47.24;100694.59;4974770;28;20055;-74
2024/01/29 01:22:09;;;;;;;3.70;1.98;;;;;;;10.07;47.98;100695.53;4974464;28;20401;-73
2024/01/29 01:24:36;;;;;;;3.70;2.08;;;;;;;10.04;47.88;100692.13;4974159;28;20138;-76
2024/01/29 01:27:03;;;;;;;2.97;1.83;;;;;;;10.03;48.06;100690.38;4974632;28;20058;-74
2024/01/29 01:29:29;;;;;;;3.58;2.17;;;;;;;10.05;48.26;100692.94;4974925;28;20137;-74
2024/01/29 01:31:56;;;;;;;1.85;1.58;;;;;;;10.03;48.36;100700.06;4974523;28;20047;-75
2024/01/29 01:34:22;;;;;;;3.33;1.85;;;;;;;10.02;48.60;100696.56;4974346;28;20047;-73
2024/01/29 01:36:49;;;;;;;2.95;1.90;;;;;;;10.01;48.55;100694.84;4973938;28;20054;-77
2024/01/29 01:39:16;;;;;;;2.50;1.60;;;;;;;10.00;48.57;100694.91;4974356;28;20137;-74
2024/01/29 01:41:51;;;;;;;2.70;1.80;;;;;;;9.93;44.38;100710.09;4974440;28;20056;-74
2024/01/29 01:44:18;;;;;;;3.33;1.95;;;;;;;9.94;48.15;100711.78;4974179;28;20055;-73
2024/01/29 01:46:45;;;;;;;3.70;2.45;;;;;;;9.91;48.40;100710.13;4973768;28;20046;-74
2024/01/29 01:49:12;;;;;;;3.40;1.67;;;;;;;9.90;48.19;100707.56;4974469;28;20145;-77
2024/01/29 01:51:39;;;;;;;2.47;1.90;;;;;;;9.87;48.25;100705.06;4974178;28;20162;-74
2024/01/29 01:54:08;;;;;;;3.38;1.83;;;;;;;9.83;48.40;100699.06;4973978;28;20050;-74
2024/01/29 01:56:36;;;;;;;4.07;1.65;;;;;;;9.81;48.68;100698.28;4973628;28;20492;-75
2024/01/29 01:59:04;;;;;;;3.47;1.95;;;;;;;9.76;48.47;100700.22;4954823;29;20086;-76
2024/01/29 02:01:31;;;;;;;4.95;1.80;;;;;;;9.71;48.21;100704.78;4954679;29;20114;-73
2024/01/29 02:03:58;;;;;;;3.00;1.83;;;;;;;9.68;48.37;100705.75;4954633;29;20055;-76
2024/01/29 02:06:25;;;;;;;3.25;1.90;;;;;;;9.67;48.91;100706.69;4955760;28;20063;-74
2024/01/29 02:08:52;;;;;;;5.20;2.05;;;;;;;9.64;48.41;100706.78;4973499;28;20050;-74
2024/01/29 02:11:19;;;;;;;3.35;1.80;;;;;;;9.63;48.84;100710.34;4973995;28;20117;-76
2024/01/29 02:13:45;;;;;;;3.28;1.90;;;;;;;9.61;48.14;100718.28;4973459;28;20085;-73
2024/01/29 02:16:12;;;;;;;4.40;1.77;;;;;;;9.60;48.49;100713.94;4973694;28;20047;-75
2024/01/29 02:18:39;;;;;;;3.70;1.50;;;;;;;9.59;48.83;100720.13;4956039;28;20574;-73
2024/01/29 02:21:06;;;;;;;3.60;2.13;;;;;;;9.58;49.05;100721.03;4956550;28;20051;-74
2024/01/29 02:23:32;;;;;;;2.47;1.50;;;;;;;9.58;48.85;100704.41;4973286;28;20074;-74
2024/01/29 02:25:59;;;;;;;2.78;1.73;;;;;;;9.57;49.05;100698.28;4972460;28;20054;-74
2024/01/29 02:28:27;;;;;;;2.88;1.80;;;;;;;9.56;48.66;100707.09;4973071;28;20051;-73
2024/01/29 02:30:54;;;;;;;3.80;1.95;;;;;;;9.56;49.15;100707.09;4973520;28;20094;-74
2024/01/29 02:33:21;;;;;;;2.92;1.80;;;;;;;9.54;48.64;100703.66;4973166;28;20134;-72
2024/01/29 02:35:48;;;;;;;3.83;1.70;;;;;;;9.54;48.92;100708.06;4973716;28;20053;-73
2024/01/29 02:38:15;;;;;;;4.97;2.10;;;;;;;9.56;49.06;100698.34;4956406;28;20440;-74
2024/01/29 02:40:42;;;;;;;2.47;1.60;;;;;;;9.56;49.08;100695.69;4972662;28;20047;-76
2024/01/29 02:43:09;;;;;;;3.15;2.05;;;;;;;9.56;49.07;100700.97;4955623;28;20487;-74
2024/01/29 02:45:36;;;;;;;3.00;1.95;;;;;;;9.56;49.32;100704.44;4972985;28;20054;-72
2024/01/29 02:48:02;;;;;;;2.90;2.05;;;;;;;9.56;49.36;100706.22;4973069;28;20086;-73
2024/01/29 02:50:29;;;;;;;2.78;1.77;;;;;;;9.55;48.91;100704.50;4972550;28;20047;-73
2024/01/29 02:52:58;;;;;;;3.20;1.83;;;;;;;9.54;48.98;100708.06;4973117;28;20055;-76
2024/01/29 02:55:24;;;;;;;3.50;2.13;;;;;;;9.55;49.23;100700.13;4972804;28;20385;-73
2024/01/29 02:57:51;;;;;;;3.40;1.90;;;;;;;9.57;49.14;100697.44;4972976;28;20085;-74
2024/01/29 03:00:17;;;;;;;4.00;2.20;;;;;;;9.57;49.34;100700.06;4972387;28;20514;-73
2024/01/29 03:02:44;;;;;;;3.08;1.70;;;;;;;9.57;49.03;100697.44;4972970;28;20066;-74
2024/01/29 03:05:10;;;;;;;2.95;1.67;;;;;;;9.57;49.17;100697.44;4972443;28;20102;-74
2024/01/29 03:07:37;;;;;;;2.90;1.88;;;;;;;9.58;49.27;100693.88;4972692;28;20055;-73
2024/01/29 03:10:04;;;;;;;2.47;1.63;;;;;;;9.57;49.23;100689.56;4972662;28;20133;-72
2024/01/29 03:12:31;;;;;;;2.30;1.55;;;;;;;9.55;48.89;100694.88;4972409;28;20202;-76
2024/01/29 03:14:58;;;;;;;4.07;1.80;;;;;;;9.52;48.59;100695.84;4972206;28;20156;-73
2024/01/29 03:17:28;;;;;;;4.13;1.65;;;;;;;9.53;49.13;100686.16;4972871;28;20518;-74
2024/01/29 03:19:56;;;;;;;4.13;1.58;;;;;;;9.54;49.14;100692.28;4972286;28;20051;-73
2024/01/29 03:22:23;;;;;;;3.92;1.55;;;;;;;9.54;49.30;100692.28;4953348;29;20087;-75
2024/01/29 03:24:49;;;;;;;4.90;2.20;;;;;;;9.55;49.42;100705.38;4952846;29;20117;-73
2024/01/29 03:27:16;;;;;;;5.30;1.50;;;;;;;9.55;49.81;100701.88;4953053;29;20481;-73
2024/01/29 03:29:42;;;;;;;4.35;2.05;;;;;;;9.54;49.48;100714.19;4935960;29;20051;-74
2024/01/29 03:32:09;;;;;;;3.13;1.38;;;;;;;9.51;49.81;100717.78;4968210;28;20050;-73
2024/01/29 03:34:40;;;;;;;7.50;1.65;;;;;;;9.46;48.39;100714.44;4972025;28;20449;-75
2024/01/29 03:37:07;;;;;;;2.83;1.52;;;;;;;9.46;50.05;100717.06;4954824;28;20058;-74
2024/01/29 03:39:33;;;;;;;4.10;2.00;;;;;;;9.44;49.85;100716.28;4972263;28;20078;-74
2024/01/29 03:42:00;;;;;;;2.00;1.80;;;;;;;9.41;50.05;100716.38;4971725;28;20583;-74
2024/01/29 03:44:27;;;;;;;5.60;2.03;;;;;;;9.40;50.10;100717.31;4971927;28;20058;-73
2024/01/29 03:46:53;;;;;;;3.75;1.98;;;;;;;9.38;50.38;100719.13;4955001;28;20050;-76
2024/01/29 03:49:20;;;;;;;4.28;1.95;;;;;;;9.36;50.25;100713.94;4972217;28;20070;-73
2024/01/29 03:51:46;;;;;;;2.63;1.70;;;;;;;9.35;50.25;100724.50;4971905;28;20476;-73
2024/01/29 03:54:13;;;;;;;4.13;1.98;;;;;;;9.33;50.09;100721.06;4971647;28;20415;-75
2024/01/29 03:56:39;;;;;;;2.83;1.90;;;;;;;9.31;50.29;100715.03;4971810;28;20050;-74
2024/01/29 03:59:10;;;;;;;4.32;1.80;;;;;;;9.29;50.35;100715.06;4954884;28;20062;-73
2024/01/29 04:01:37;;;;;;;3.90;1.75;;;;;;;9.27;50.26;100706.38;4972065;28;20468;-75
2024/01/29 04:04:04;;;;;;;2.85;2.00;;;;;;;9.27;50.61;100709.00;4954342;28;20059;-73
2024/01/29 04:06:31;;;;;;;3.00;1.90;;;;;;;9.24;50.36;100704.72;4954739;28;20050;-72
2024/01/29 04:08:58;;;;;;;3.35;1.75;;;;;;;9.22;50.48;100703.94;4971968;28;20062;-73
2024/01/29 04:11:24;;;;;;;4.65;1.88;;;;;;;9.20;50.69;100705.75;4971765;28;20043;-75
2024/01/29 04:13:51;;;;;;;2.45;1.80;;;;;;;9.18;50.71;100704.94;4971393;28;20051;-73
2024/01/29 04:16:18;;;;;;;3.80;2.20;;;;;;;9.16;50.64;100704.13;4971782;28;20086;-73
2024/01/29 04:18:44;;;;;;;3.00;1.60;;;;;;;9.14;50.75;100708.59;4971887;28;20097;-72
2024/01/29 04:21:11;;;;;;;2.63;1.90;;;;;;;9.11;50.06;100712.19;4971698;28;20451;-74
2024/01/29 04:23:38;;;;;;;2.58;1.80;;;;;;;9.12;50.68;100707.78;4971222;28;20090;-73
2024/01/29 04:26:04;;;;;;;3.38;2.05;;;;;;;9.09;50.62;100702.66;4971228;28;20055;-73
2024/01/29 04:28:31;;;;;;;3.00;1.90;;;;;;;9.10;50.86;100710.50;4971684;28;20845;-76
2024/01/29 04:30:57;;;;;;;2.53;1.70;;;;;;;9.09;50.72;100706.13;4971780;28;20050;-72
2024/01/29 04:33:30;;;;;;;2.78;1.90;;;;;;;9.08;50.94;100701.78;4955289;28;20051;-73
2024/01/29 04:35:56;;;;;;;4.25;2.13;;;;;;;9.07;50.96;100710.59;4971266;28;20055;-76
2024/01/29 04:38:23;;;;;;;3.92;1.90;;;;;;;9.06;50.71;100706.25;4971186;28;20047;-71
2024/01/29 04:40:49;;;;;;;3.75;2.08;;;;;;;9.06;51.13;100708.00;4954500;28;20090;-73
2024/01/29 04:43:16;;;;;;;4.70;1.83;;;;;;;9.04;51.28;100708.06;4971017;28;20050;-77
2024/01/29 04:45:42;;;;;;;3.13;1.88;;;;;;;9.04;51.12;100712.47;4954028;28;20055;-74
2024/01/29 04:48:09;;;;;;;3.72;1.85;;;;;;;9.02;51.21;100701.16;4972630;28;20062;-77
2024/01/29 04:50:36;;;;;;;3.50;1.98;;;;;;;8.99;50.85;100696.88;4975294;28;20098;-76
2024/01/29 04:53:03;;;;;;;3.30;1.70;;;;;;;8.98;50.97;100709.13;4957995;28;20047;-78
2024/01/29 04:55:30;;;;;;;1.98;1.73;;;;;;;8.98;50.97;100709.13;4974856;28;20137;-76
2024/01/29 04:57:56;;;;;;;3.08;1.70;;;;;;;8.96;51.08;100713.59;4974921;28;20086;-76
2024/01/29 05:00:23;;;;;;;3.67;2.30;;;;;;;8.94;50.88;100712.78;4975170;28;20054;-76
2024/01/29 05:02:50;;;;;;;4.93;2.08;;;;;;;8.92;51.07;100709.34;4975163;28;20054;-76
2024/01/29 05:05:17;;;;;;;3.88;2.13;;;;;;;8.92;51.17;100717.22;4974766;28;20098;-76
2024/01/29 05:07:43;;;;;;;3.45;1.92;;;;;;;8.90;50.87;100719.03;4974387;28;20086;-79
2024/01/29 05:10:10;;;;;;;2.88;1.83;;;;;;;8.89;51.22;100727.00;4975102;28;20059;-76
2024/01/29 05:12:36;;;;;;;3.60;1.75;;;;;;;8.86;51.31;100727.97;4974889;28;20057;-77
2024/01/29 05:15:03;;;;;;;5.43;2.33;;;;;;;8.84;51.37;100721.88;4974677;28;20055;-77
2024/01/29 05:17:30;;;;;;;3.53;2.05;;;;;;;8.81;51.18;100727.25;4957161;28;20055;-75
2024/01/29 05:19:56;;;;;;;6.32;2.33;;;;;;;8.79;51.50;100727.28;4974616;28;20460;-77
2024/01/29 05:22:23;;;;;;;3.95;2.10;;;;;;;8.77;51.33;100723.00;4974929;28;20051;-78
2024/01/29 05:24:50;;;;;;;3.38;2.10;;;;;;;8.73;51.25;100723.13;4974489;28;20420;-78
2024/01/29 05:27:17;;;;;;;6.78;2.10;;;;;;;8.71;51.63;100724.94;4974461;28;20050;-76
2024/01/29 05:29:43;;;;;;;3.92;2.47;;;;;;;8.69;51.73;100734.63;4974453;28;20103;-77
2024/01/29 05:32:10;;;;;;;6.07;2.22;;;;;;;8.68;51.62;100734.69;4974862;28;20137;-78
2024/01/29 05:34:36;;;;;;;3.78;2.00;;;;;;;8.66;51.77;100728.59;4973844;28;20047;-76
2024/01/29 05:37:03;;;;;;;3.15;1.98;;;;;;;8.66;51.95;100731.22;4974432;28;20051;-77
2024/01/29 05:39:30;;;;;;;3.33;2.20;;;;;;;8.64;51.94;100731.31;4974057;28;20488;-75
2024/01/29 05:41:56;;;;;;;4.28;1.88;;;;;;;8.62;52.21;100732.25;4957330;28;20102;-76
2024/01/29 05:44:23;;;;;;;3.78;2.10;;;;;;;8.60;52.23;100745.44;4974017;28;20050;-75
2024/01/29 05:46:49;;;;;;;4.22;2.33;;;;;;;8.59;52.33;100743.69;4974025;28;20047;-75
2024/01/29 05:49:15;;;;;;;5.70;2.60;;;;;;;8.57;52.34;100749.00;4973976;28;20066;-79
2024/01/29 05:51:42;;;;;;;4.30;1.92;;;;;;;8.54;52.50;100749.13;4974543;28;20057;-73
2024/01/29 05:54:09;;;;;;;6.22;2.45;;;;;;;8.53;52.53;100750.03;4974094;28;20125;-78
2024/01/29 05:56:42;;;;;;;3.40;2.10;;;;;;;8.49;51.47;100740.50;4974373;28;20054;-76
2024/01/29 05:59:08;;;;;;;3.92;2.60;;;;;;;8.50;52.48;100736.09;4973808;28;20054;-76
2024/01/29 06:01:35;;;;;;;5.32;2.88;;;;;;;8.48;52.73;100742.25;4974512;28;20447;-74
2024/01/29 06:04:02;;;;;;;3.75;2.50;;;;;;;8.47;52.85;100735.31;4974130;28;20421;-75
2024/01/29 06:06:28;;;;;;;5.68;2.35;;;;;;;8.46;52.65;100736.19;4973943;28;20571;-75
2024/01/29 06:08:55;;;;;;;4.85;2.30;;;;;;;8.44;52.36;100734.53;4973446;28;20058;-74
2024/01/29 06:11:21;;;;;;;3.88;2.40;;;;;;;8.42;52.54;100731.13;4973908;28;20053;-75
2024/01/29 06:13:48;;;;;;;3.25;2.15;;;;;;;8.40;53.08;100738.16;4973857;28;20110;-75
2024/01/29 06:16:21;;;;;;;4.90;2.47;;;;;;;8.35;50.87;100726.03;4973648;28;20078;-74
2024/01/29 06:18:48;;;;;;;4.20;2.30;;;;;;;8.35;52.57;100727.81;4973509;28;20059;-76
2024/01/29 06:21:15;;;;;;;5.13;2.10;;;;;;;8.32;52.54;100718.28;4973840;28;20051;-74
2024/01/29 06:23:42;;;;;;;6.40;2.40;;;;;;;8.30;52.94;100725.34;4973356;28;20448;-78
2024/01/29 06:26:09;;;;;;;4.97;2.30;;;;;;;8.29;52.98;100730.63;4973320;28;20059;-76
2024/01/29 06:28:36;;;;;;;4.38;2.38;;;;;;;8.27;52.88;100735.09;4972748;28;20039;-74
2024/01/29 06:31:03;;;;;;;3.88;2.13;;;;;;;8.25;53.11;100743.00;4972429;28;20058;-74
2024/01/29 06:33:30;;;;;;;4.13;2.55;;;;;;;8.24;53.27;100746.53;4973090;28;20455;-75
2024/01/29 06:35:59;;;;;;;4.65;2.40;;;;;;;8.23;53.02;100750.06;4971848;28;20137;-76
2024/01/29 06:38:26;;;;;;;3.60;2.42;;;;;;;8.21;53.21;100744.88;4955346;28;20078;-74
2024/01/29 06:40:52;;;;;;;3.10;2.05;;;;;;;8.21;53.26;100744.88;4973243;28;20042;-75
2024/01/29 06:43:19;;;;;;;2.50;1.90;;;;;;;8.21;53.38;100741.38;4972838;28;20133;-80
2024/01/29 06:45:45;;;;;;;9.98;2.47;;;;;;;8.21;53.32;100746.63;4972894;28;20416;-73
2024/01/29 06:48:12;;;;;;;4.22;2.28;;;;;;;8.19;53.19;100741.41;4972954;28;20137;-74
2024/01/29 06:50:40;;;;;;;5.47;2.67;;;;;;;8.21;53.38;100737.00;4973253;28;20423;-75
2024/01/29 06:53:06;;;;;;;4.05;2.08;;;;;;;8.20;53.03;100739.66;4973183;28;20460;-74
2024/01/29 06:55:33;;;;;;;5.38;2.30;;;;;;;8.20;53.21;100745.78;4972827;28;20047;-73
2024/01/29 06:57:59;;;;;;;6.95;2.63;;;;;;;8.20;53.12;100748.41;4973102;28;20057;-75
2024/01/29 07:00:26;;;;;;;5.18;2.40;;;;;;;8.20;53.03;100752.78;4973012;28;20138;-74
2024/01/29 07:02:52;;;;;;;8.45;2.50;;;;;;;8.19;53.32;100765.03;4955922;28;20058;-73
2024/01/29 07:05:20;;;;;;;2.65;2.05;;;;;;;8.17;53.18;100751.13;4972805;28;20455;-77
2024/01/29 07:07:46;;;;;;;4.43;2.50;;;;;;;8.16;53.23;100757.28;4972739;28;20059;-76
2024/01/29 07:10:14;;;;;;;4.38;2.95;;;;;;;8.15;53.16;100758.16;4972757;28;20054;-73
2024/01/29 07:12:41;;;;;;;4.50;2.80;;;;;;;8.15;53.46;100745.03;4972646;28;20483;-74
2024/01/29 07:15:08;;;;;;;4.97;2.28;;;;;;;8.13;53.29;100752.13;4972458;28;20055;-74
2024/01/29 07:17:35;;;;;;;4.30;2.55;;;;;;;8.14;53.56;100763.44;4955706;28;20078;-77
2024/01/29 07:20:02;;;;;;;2.92;2.08;;;;;;;8.13;53.25;100764.34;4972681;28;20059;-74
2024/01/29 07:22:36;;;;;;;5.75;2.58;;;;;;;8.11;53.28;100755.69;4955529;28;20393;-76
2024/01/29 07:25:08;;;;;;;4.95;2.10;;;;;;;8.10;52.58;100759.22;4972297;28;20089;-75
2024/01/29 07:27:34;;;;;;;3.53;2.30;;;;;;;8.11;53.94;100764.41;4955545;28;20050;-74
2024/01/29 07:30:01;;;;;;;4.18;2.40;;;;;;;8.10;53.61;100767.94;4972688;28;20054;-76
2024/01/29 07:32:31;;;;;;;6.18;2.60;;;;;;;8.12;54.05;100765.25;4972708;28;20145;-74
2024/01/29 07:35:00;;;;;;;3.25;2.38;;;;;;;8.11;53.82;100764.41;4972185;28;20492;-73
2024/01/29 07:37:27;;;;;;;5.32;2.63;;;;;;;8.10;53.32;100753.97;4972363;28;20516;-75
2024/01/29 07:39:56;;;;;;;4.93;2.50;;;;;;;8.12;53.52;100749.53;4972308;28;20085;-73
2024/01/29 07:42:23;;;;;;;4.40;2.50;;;;;;;8.14;53.99;100755.56;4972370;28;20113;-74
2024/01/29 07:44:50;;;;;;;3.95;2.33;;;;;;;8.15;53.84;100750.28;4972495;28;20055;-73
2024/01/29 07:47:16;;;;;;;5.63;2.97;;;;;;;8.17;53.53;100743.25;4972409;28;20051;-76
2024/01/29 07:49:46;;;;;;;3.40;2.47;;;;;;;8.19;53.80;100745.81;4972162;28;20455;-74
2024/01/29 07:52:13;;;;;;;4.40;2.70;;;;;;;8.22;53.76;100750.94;4972099;28;20046;-78
2024/01/29 07:54:39;;;;;;;3.88;2.55;;;;;;;8.25;53.77;100752.63;4971840;28;20069;-73
2024/01/29 07:57:06;;;;;;;4.75;2.45;;;;;;;8.29;53.98;100743.75;4972154;28;20047;-74
2024/01/29 07:59:32;;;;;;;3.85;2.60;;;;;;;8.33;54.12;100745.38;4972310;28;20050;-72
2024/01/29 08:01:59;;;;;;;4.18;2.40;;;;;;;8.37;54.16;100751.41;4972020;28;20065;-76
2024/01/29 08:04:26;;;;;;;4.95;2.78;;;;;;;8.43;54.58;100753.81;4954656;28;20082;-74
2024/01/29 08:06:53;;;;;;;4.13;2.67;;;;;;;8.49;54.14;100751.00;4971923;28;20109;-76
2024/01/29 08:09:20;;;;;;;4.07;2.58;;;;;;;8.55;54.38;100749.97;4972273;28;20065;-74
2024/01/29 08:11:47;;;;;;;4.15;2.70;;;;;;;8.60;53.89;100753.31;4972056;28;20054;-74
2024/01/29 08:14:13;;;;;;;4.93;2.55;;;;;;;8.67;54.04;100757.44;4971698;28;20046;-76
2024/01/29 08:16:40;;;;;;;6.20;3.17;;;;;;;8.73;54.04;100759.00;4971855;28;20790;-75
2024/01/29 08:19:06;;;;;;;4.80;2.80;;;;;;;8.79;53.39;100753.53;4971861;28;20121;-76
2024/01/29 08:21:33;;;;;;;4.03;2.42;;;;;;;8.83;53.68;100759.56;4972070;28;20089;-73
2024/01/29 08:24:00;;;;;;;5.45;2.83;;;;;;;8.89;53.15;100755.88;4958698;28;20042;-78
2024/01/29 08:26:26;;;;;;;5.07;2.85;;;;;;;8.95;53.33;100753.91;4975833;28;20103;-74
2024/01/29 08:28:53;;;;;;;3.58;2.63;;;;;;;9.01;53.48;100742.31;4975865;28;20455;-74
2024/01/29 08:31:19;;;;;;;7.65;2.70;;;;;;;9.05;52.86;100743.91;4975757;28;20098;-77
2024/01/29 08:33:46;;;;;;;5.93;2.90;;;;;;;9.11;53.40;100754.22;4958406;28;20137;-73
2024/01/29 08:36:14;;;;;;;8.00;3.03;;;;;;;9.12;53.24;100750.69;4975736;28;20047;-73
2024/01/29 08:38:42;;;;;;;4.95;2.70;;;;;;;9.15;53.14;100749.72;4975847;28;20117;-75
2024/01/29 08:41:09;;;;;;;6.13;2.70;;;;;;;9.18;53.15;100754.88;4975909;28;20051;-74
2024/01/29 08:43:35;;;;;;;5.38;2.78;;;;;;;9.20;53.17;100771.41;4975416;28;20061;-78
2024/01/29 08:46:02;;;;;;;5.15;2.80;;;;;;;9.22;52.83;100755.59;4975430;28;20460;-74
2024/01/29 08:48:29;;;;;;;6.18;3.28;;;;;;;9.24;53.02;100762.53;4975644;28;20046;-74
2024/01/29 08:50:57;;;;;;;4.18;2.88;;;;;;;9.28;52.89;100770.31;4975642;28;20051;-77
2024/01/29 08:53:25;;;;;;;4.10;2.88;;;;;;;9.29;52.71;100772.88;4975210;28;20051;-74
2024/01/29 08:55:51;;;;;;;4.28;2.65;;;;;;;9.29;52.56;100772.00;4975286;28;20046;-75
2024/01/29 08:58:18;;;;;;;5.30;3.25;;;;;;;9.29;52.51;100772.88;4975297;28;20047;-73
2024/01/29 09:00:45;;;;;;;6.20;3.20;;;;;;;9.30;52.83;100773.75;4975241;28;20515;-75
2024/01/29 09:03:12;;;;;;;5.72;3.00;;;;;;;9.31;52.93;100772.81;4974854;28;20133;-76
2024/01/29 09:05:38;;;;;;;5.82;2.90;;;;;;;9.31;53.01;100771.03;4974968;28;20047;-74
2024/01/29 09:08:06;;;;;;;4.93;3.13;;;;;;;9.32;53.02;100771.91;4975052;28;20055;-75
2024/01/29 09:10:44;;;;;;;4.65;3.13;;;;;;;9.32;52.83;100780.66;4959397;28;20543;-73
2024/01/29 09:13:12;;;;;;;4.88;3.05;;;;;;;9.32;52.66;100780.66;4974735;28;20515;-76
2024/01/29 09:15:38;;;;;;;5.30;3.10;;;;;;;9.34;52.97;100793.72;4974563;28;20047;-74
2024/01/29 09:18:05;;;;;;;5.72;3.08;;;;;;;9.36;53.25;100799.78;4957834;28;20134;-74
2024/01/29 09:20:32;;;;;;;6.82;2.90;;;;;;;9.36;53.51;100800.66;4957757;28;20128;-75
2024/01/29 09:22:58;;;;;;;5.18;2.90;;;;;;;9.37;53.70;100797.13;4974905;28;20054;-76
2024/01/29 09:25:25;;;;;;;6.28;3.05;;;;;;;9.39;53.67;100794.44;4974640;28;20051;-74
2024/01/29 09:27:51;;;;;;;4.28;3.15;;;;;;;9.41;53.26;100800.47;4975001;28;20059;-74
2024/01/29 09:30:18;;;;;;;4.60;2.95;;;;;;;9.46;53.53;100806.44;4974889;28;20078;-76
2024/01/29 09:32:45;;;;;;;6.88;3.80;;;;;;;9.49;53.79;100806.34;4974787;28;20109;-74
2024/01/29 09:35:11;;;;;;;7.35;3.70;;;;;;;9.54;53.67;100803.56;4973749;28;20055;-74
2024/01/29 09:37:39;;;;;;;6.60;3.38;;;;;;;9.57;53.89;100798.16;4974557;28;20498;-75
2024/01/29 09:40:14;;;;;;;5.20;3.30;;;;;;;9.59;52.68;100809.50;4974634;28;20055;-75
2024/01/29 09:42:47;;;;;;;6.25;3.58;;;;;;;9.63;53.35;100799.72;4974450;28;20555;-75
2024/01/29 09:45:20;;;;;;;6.35;3.90;;;;;;;9.65;51.37;100809.25;4974361;28;20139;-74
2024/01/29 09:47:49;;;;;;;;;;;;;;;9.69;48.62;100809.16;4957749;28;20054;-76
2024/01/29 09:50:16;;;;;;;5.47;3.03;;;;;;;9.78;53.91;100793.03;4974442;28;20014;-75
2024/01/29 09:52:43;;;;;;;5.20;3.45;;;;;;;9.81;53.83;100799.94;4974266;28;20094;-74
2024/01/29 09:55:11;;;;;;;6.80;3.70;;;;;;;9.83;53.80;100803.41;4956949;28;20054;-75
2024/01/29 09:57:38;;;;;;;5.88;3.50;;;;;;;9.86;54.02;100800.63;4974363;28;20118;-74
2024/01/29 10:00:06;;;;;;;5.63;3.45;;;;;;;9.89;53.83;100797.91;4974313;28;20054;-75
2024/01/29 10:02:36;;;;;;;6.15;3.67;;;;;;;9.91;53.71;100802.19;4974203;28;20452;-74
2024/01/29 10:05:08;;;;;;;9.07;3.55;;;;;;;9.95;52.56;100805.59;4973896;28;20066;-74
2024/01/29 10:07:35;;;;;;;6.15;3.50;;;;;;;10.00;54.03;100808.88;4973807;28;20061;-76
2024/01/29 10:10:02;;;;;;;6.20;3.50;;;;;;;10.04;54.25;100807.84;4973967;28;20137;-73
2024/01/29 10:12:28;;;;;;;4.97;3.47;;;;;;;10.08;54.01;100808.59;4974016;28;20051;-75
2024/01/29 10:14:58;;;;;;;5.65;3.42;;;;;;;10.13;53.99;100805.78;4973735;28;20054;-73
2024/01/29 10:17:25;;;;;;;6.45;3.38;;;;;;;10.17;53.71;100824.03;4973820;28;20496;-74
2024/01/29 10:19:51;;;;;;;6.07;3.78;;;;;;;10.24;54.09;100816.75;4973701;28;20066;-78
2024/01/29 10:22:23;;;;;;;7.03;4.30;;;;;;;10.28;53.99;100805.19;4973747;28;20047;-74
2024/01/29 10:25:03;;;;;;;7.82;4.60;;;;;;;10.29;50.73;100819.22;4973846;28;20054;-74
2024/01/29 10:27:30;;;;;;;8.45;3.95;;;;;;;10.37;53.87;100811.00;4973725;28;20043;-75
2024/01/29 10:29:57;;;;;;;5.63;3.67;;;;;;;10.43;54.27;100810.75;4973599;28;20051;-76
2024/01/29 10:32:26;;;;;;;5.20;3.53;;;;;;;10.49;54.19;100812.31;4973528;28;20062;-74
2024/01/29 10:34:52;;;;;;;8.38;3.88;;;;;;;10.54;53.62;100815.63;4973466;28;20058;-77
2024/01/29 10:37:21;;;;;;;6.00;3.80;;;;;;;10.59;53.34;100807.56;4956462;28;20199;-74
2024/01/29 10:39:48;;;;;;;5.07;3.70;;;;;;;10.63;53.98;100815.28;4973631;28;20133;-75
2024/01/29 10:42:28;;;;;;;7.70;3.88;;;;;;;10.69;53.81;100803.63;4958143;28;20097;-75
2024/01/29 10:45:00;;;;;;;7.28;3.75;;;;;;;10.75;54.01;100803.41;4972782;28;20054;-75
2024/01/29 10:47:36;;;;;;;8.85;4.30;;;;;;;10.80;52.81;100806.69;4973059;28;20042;-76
2024/01/29 10:50:03;;;;;;;7.38;4.57;;;;;;;10.90;54.48;100811.56;4973507;28;20694;-75
2024/01/29 10:52:30;;;;;;;9.43;4.50;;;;;;;10.95;54.39;100805.19;4973278;28;20109;-75
2024/01/29 10:54:58;;;;;;;7.93;3.97;;;;;;;11.03;54.51;100809.31;4972877;28;20097;-74
2024/01/29 10:57:28;;;;;;;8.15;4.50;;;;;;;11.11;53.87;100808.97;4972965;28;20050;-76
2024/01/29 10:59:56;;;;;;;5.28;3.85;;;;;;;11.20;54.50;100808.56;4973341;28;20460;-74
2024/01/29 11:02:24;;;;;;;6.45;3.97;;;;;;;11.27;54.53;100804.75;4973070;28;20086;-78
2024/01/29 11:04:50;;;;;;;6.70;4.28;;;;;;;11.37;54.81;100813.13;4972742;28;20481;-73
2024/01/29 11:07:24;;;;;;;7.13;4.65;;;;;;;11.44;53.14;100825.09;4972957;28;20042;-74
2024/01/29 11:09:59;;;;;;;6.00;4.60;;;;;;;11.54;53.09;100822.94;4972880;28;20056;-78
2024/01/29 11:12:28;;;;;;;7.45;4.30;;;;;;;11.65;54.28;100830.38;4955935;28;20142;-73
2024/01/29 11:14:59;;;;;;;8.18;4.18;;;;;;;11.75;53.60;100835.22;4955442;28;20065;-75
2024/01/29 11:17:27;;;;;;;6.13;4.32;;;;;;;11.85;53.67;100842.66;4955648;28;20050;-74
2024/01/29 11:19:58;;;;;;;6.95;4.28;;;;;;;11.96;53.76;100836.06;4972799;28;20082;-74
2024/01/29 11:22:50;;;;;;;8.10;4.28;;;;;;;12.07;52.87;100841.72;4972707;28;20086;-75
2024/01/29 11:25:19;;;;;;;9.23;4.38;;;;;;;12.27;55.81;100837.31;4961681;28;20566;-76
2024/01/29 11:27:47;;;;;;;8.68;3.83;;;;;;;12.45;56.12;100847.94;4955605;28;20055;-76
2024/01/29 11:30:23;;;;;;;6.97;5.00;;;;;;;12.63;53.15;100843.53;4955438;28;20098;-75
2024/01/29 11:32:51;;;;;;;9.02;4.43;;;;;;;12.92;57.45;100838.63;4972348;28;20070;-76
2024/01/29 11:35:20;;;;;;;6.45;3.95;;;;;;;13.27;58.64;100843.94;4972418;28;20058;-77